Aérodrome :
LOGIN :

S'inscrire | Disclaimer

   EN    FR    IT 

 










Légende :    VFR   VFR Marginal   IFR   IFR Intensif   IFR Très Intensif
Visi : 
Plafond : 
>= 8 km
>= 3000ft
5 à 8 km
1000 à 3000 ft
1500m à 5 km
500 à 1000 ft
800 à 1500m
200 à 500 ft
< 800m
< 200 ft
Symboles :   Orages  Brouillard  Fortes neiges  Fortes précipitations  Vent > 20 kt
SIGMETs :   Divers  Orages  Givrage  Turbulence  Onde Orograph.  Cendres Volcan.







- Altitude de l'aérodrome : 290 ft
- Code IATA : LAI
- Voir les cartes d'approche


LFRO - Lannion

DERNIER METAR :
  • 181930Z AUTO 20007KT 9999 SCT027/// BKN038/// ///CB 08/07 Q1005 TEMPO 4000 SHRA

METARs EXPIRÉS :
  • 181900Z AUTO 20005KT 170V230 9999 FEW032 07/07 Q1005 TEMPO 4000 SHRA BKN017TCU
  • 181830Z AUTO 20004KT 160V230 9999 FEW033/// ///TCU 08/07 Q1005 TEMPO 4000 SHRA
  • 181800Z AUTO 21008KT 9999 BKN035 OVC042 08/07 Q1005 TEMPO 4000 SHRA BKN017TCU
  • 181730Z AUTO 22008KT 9999 BKN035 BKN084 OVC100 08/08 Q1004 TEMPO 4000 SHRA BKN017TCU
  • 181700Z AUTO 22008KT 9999 -RA FEW023/// BKN062/// OVC100/// ///CB 08/07 Q1004 TEMPO 4000 SHRA SCT020

TAF TAF LFRO
Valide du 18 à 18h jusqu'au 19 à 18h UTC


181700Z 1818/1918 22010KT 9999 NSW SCT020
TEMPO 1818/1918 4000 SHRA BKN017TCU
PROB40
TEMPO 1900/1918 2000 TSRA SCT018CB
BECMG 1915/1918 21013G25KT
Pas de NOTAMs connus pour ce terrain.



MET'MAP, la Météo Aéronautique d'un coup d'oeil ! - Copyright ORBIFLY Décembre 2007 - Disclaimer

ORBIFLY MET'MAP TEAM :

Programmation & Développement : Alexandra Zaïnal
Conception & Développement : Baudouin d'Aumeries
Co-Programmation & Développement : Marc-Olivier Méhu
Soutien technique & logistique : Manuel Goepfert

Contact : metmap@orbifly.com




SOURCES & CREDITS :

   NOAA